sensor_id;sensor_type;location;lat;lon;timestamp;pressure;altitude;pressure_sealevel;temperature;humidity
67818;BME280;54614;47.576;7.524;2024-01-07T00:02:09;97857.38;;;22.23;38.89
67818;BME280;54614;47.576;7.524;2024-01-07T00:04:34;97857.81;;;22.19;39.11
67818;BME280;54614;47.576;7.524;2024-01-07T00:07:00;97864.38;;;22.24;39.00
67818;BME280;54614;47.576;7.524;2024-01-07T00:09:26;97864.41;;;22.17;39.03
67818;BME280;54614;47.576;7.524;2024-01-07T00:11:51;97867.72;;;22.19;39.12
67818;BME280;54614;47.576;7.524;2024-01-07T00:14:17;97861.09;;;22.22;38.92
67818;BME280;54614;47.576;7.524;2024-01-07T00:16:43;97869.97;;;22.22;39.04
67818;BME280;54614;47.576;7.524;2024-01-07T00:19:09;97859.28;;;22.15;39.23
67818;BME280;54614;47.576;7.524;2024-01-07T00:21:34;97858.06;;;22.11;39.19
67818;BME280;54614;47.576;7.524;2024-01-07T00:24:00;97863.00;;;22.14;39.26
67818;BME280;54614;47.576;7.524;2024-01-07T00:26:26;97861.97;;;22.15;38.93
67818;BME280;54614;47.576;7.524;2024-01-07T00:28:51;97870.59;;;22.17;39.01
67818;BME280;54614;47.576;7.524;2024-01-07T00:31:17;97871.63;;;22.16;39.35
67818;BME280;54614;47.576;7.524;2024-01-07T00:33:43;97875.75;;;22.19;39.01
67818;BME280;54614;47.576;7.524;2024-01-07T00:36:09;97864.03;;;22.13;39.19
67818;BME280;54614;47.576;7.524;2024-01-07T00:38:35;97868.56;;;22.13;39.21
67818;BME280;54614;47.576;7.524;2024-01-07T00:41:01;97870.41;;;22.12;39.33
67818;BME280;54614;47.576;7.524;2024-01-07T00:43:26;97874.34;;;22.10;39.27
67818;BME280;54614;47.576;7.524;2024-01-07T00:45:52;97859.91;;;22.11;39.45
67818;BME280;54614;47.576;7.524;2024-01-07T00:48:18;97861.56;;;22.12;39.14
67818;BME280;54614;47.576;7.524;2024-01-07T00:50:43;97865.06;;;22.12;39.14
67818;BME280;54614;47.576;7.524;2024-01-07T00:53:09;97860.75;;;22.11;39.35
67818;BME280;54614;47.576;7.524;2024-01-07T00:55:35;97862.59;;;22.11;39.53
67818;BME280;54614;47.576;7.524;2024-01-07T00:58:01;97861.56;;;22.12;39.17
67818;BME280;54614;47.576;7.524;2024-01-07T01:00:28;97862.59;;;22.11;39.60
67818;BME280;54614;47.576;7.524;2024-01-07T01:02:55;97868.38;;;22.08;39.27
67818;BME280;54614;47.576;7.524;2024-01-07T01:05:21;97860.13;;;22.09;39.61
67818;BME280;54614;47.576;7.524;2024-01-07T01:07:46;97872.69;;;22.09;39.27
67818;BME280;54614;47.576;7.524;2024-01-07T01:10:12;97873.72;;;22.08;39.54
67818;BME280;54614;47.576;7.524;2024-01-07T01:12:40;97867.56;;;22.07;39.28
67818;BME280;54614;47.576;7.524;2024-01-07T01:15:06;97870.44;;;22.06;39.52
67818;BME280;54614;47.576;7.524;2024-01-07T01:17:32;97870.44;;;22.06;39.37
67818;BME280;54614;47.576;7.524;2024-01-07T01:19:57;97872.28;;;21.99;39.92
67818;BME280;54614;47.576;7.524;2024-01-07T01:22:23;97871.69;;;22.03;39.37
67818;BME280;54614;47.576;7.524;2024-01-07T01:24:49;97869.84;;;22.04;39.46
67818;BME280;54614;47.576;7.524;2024-01-07T01:27:16;97880.53;;;22.04;39.50
67818;BME280;54614;47.576;7.524;2024-01-07T01:29:42;97871.47;;;22.05;39.27
67818;BME280;54614;47.576;7.524;2024-01-07T01:32:08;97875.59;;;22.01;39.37
67818;BME280;54614;47.576;7.524;2024-01-07T01:34:33;97879.91;;;22.02;39.13
67818;BME280;54614;47.576;7.524;2024-01-07T01:36:59;97873.72;;;22.01;39.25
67818;BME280;54614;47.576;7.524;2024-01-07T01:39:25;97872.72;;;22.02;39.45
67818;BME280;54614;47.576;7.524;2024-01-07T01:41:50;97873.13;;;21.99;39.41
67818;BME280;54614;47.576;7.524;2024-01-07T01:44:16;97873.13;;;21.99;39.23
67818;BME280;54614;47.576;7.524;2024-01-07T01:46:45;97874.56;;;21.95;39.29
67818;BME280;54614;47.576;7.524;2024-01-07T01:49:12;97873.53;;;21.96;39.75
67818;BME280;54614;47.576;7.524;2024-01-07T01:51:39;97871.06;;;21.95;39.38
67818;BME280;54614;47.576;7.524;2024-01-07T01:54:05;97877.03;;;21.97;39.42
67818;BME280;54614;47.576;7.524;2024-01-07T01:56:32;97878.69;;;21.98;39.60
67818;BME280;54614;47.576;7.524;2024-01-07T01:58:59;97879.72;;;21.97;39.33
67818;BME280;54614;47.576;7.524;2024-01-07T02:01:26;97882.19;;;21.98;39.38
67818;BME280;54614;47.576;7.524;2024-01-07T02:03:52;97890.22;;;21.98;39.21
67818;BME280;54614;47.576;7.524;2024-01-07T02:06:21;97885.50;;;21.94;39.28
67818;BME280;54614;47.576;7.524;2024-01-07T02:08:48;97884.69;;;21.93;39.53
67818;BME280;54614;47.576;7.524;2024-01-07T02:11:19;97883.84;;;21.93;39.44
67818;BME280;54614;47.576;7.524;2024-01-07T02:13:46;97889.00;;;21.94;39.54
67818;BME280;54614;47.576;7.524;2024-01-07T02:16:12;97883.03;;;21.92;39.28
67818;BME280;54614;47.576;7.524;2024-01-07T02:18:42;97895.59;;;21.92;39.43
67818;BME280;54614;47.576;7.524;2024-01-07T02:21:10;97886.75;;;21.91;39.62
67818;BME280;54614;47.576;7.524;2024-01-07T02:23:36;97890.44;;;21.90;39.64
67818;BME280;54614;47.576;7.524;2024-01-07T02:26:02;97885.91;;;21.91;39.76
67818;BME280;54614;47.576;7.524;2024-01-07T02:28:31;97889.63;;;21.90;39.55
67818;BME280;54614;47.576;7.524;2024-01-07T02:30:56;97888.81;;;21.89;39.67
67818;BME280;54614;47.576;7.524;2024-01-07T02:33:22;97893.53;;;21.87;39.63
67818;BME280;54614;47.576;7.524;2024-01-07T02:35:48;97883.88;;;21.86;39.56
67818;BME280;54614;47.576;7.524;2024-01-07T02:38:14;97896.44;;;21.85;39.62
67818;BME280;54614;47.576;7.524;2024-01-07T02:40:39;97886.34;;;21.87;39.57
67818;BME280;54614;47.576;7.524;2024-01-07T02:43:05;97891.69;;;21.87;39.46
67818;BME280;54614;47.576;7.524;2024-01-07T02:45:31;97888.63;;;21.84;39.76
67818;BME280;54614;47.576;7.524;2024-01-07T02:47:57;97884.28;;;21.83;39.42
67818;BME280;54614;47.576;7.524;2024-01-07T02:50:22;97887.78;;;21.83;39.62
67818;BME280;54614;47.576;7.524;2024-01-07T02:52:48;97888.00;;;21.82;39.68
67818;BME280;54614;47.576;7.524;2024-01-07T02:55:14;97885.72;;;21.85;39.60
67818;BME280;54614;47.576;7.524;2024-01-07T02:57:40;97885.72;;;21.85;39.31
67818;BME280;54614;47.576;7.524;2024-01-07T03:00:06;97888.81;;;21.82;39.22
67818;BME280;54614;47.576;7.524;2024-01-07T03:02:33;97893.75;;;21.85;39.41
67818;BME280;54614;47.576;7.524;2024-01-07T03:04:59;97890.47;;;21.83;39.44
67818;BME280;54614;47.576;7.524;2024-01-07T03:07:25;97888.00;;;21.82;39.53
67818;BME280;54614;47.576;7.524;2024-01-07T03:09:51;97892.31;;;21.83;39.36
67818;BME280;54614;47.576;7.524;2024-01-07T03:12:17;97891.91;;;21.79;39.49
67818;BME280;54614;47.576;7.524;2024-01-07T03:14:43;97888.84;;;21.76;39.51
67818;BME280;54614;47.576;7.524;2024-01-07T03:17:12;97891.09;;;21.79;39.74
67818;BME280;54614;47.576;7.524;2024-01-07T03:19:38;97890.69;;;21.75;39.71
67818;BME280;54614;47.576;7.524;2024-01-07T03:22:04;97893.38;;;21.75;39.51
67818;BME280;54614;47.576;7.524;2024-01-07T03:24:32;97890.69;;;21.75;39.76
67818;BME280;54614;47.576;7.524;2024-01-07T03:26:58;97892.56;;;21.75;39.80
67818;BME280;54614;47.576;7.524;2024-01-07T03:29:24;97901.19;;;21.77;39.68
67818;BME280;54614;47.576;7.524;2024-01-07T03:31:50;97900.16;;;21.78;39.61
67818;BME280;54614;47.576;7.524;2024-01-07T03:34:16;97898.31;;;21.78;39.61
67818;BME280;54614;47.576;7.524;2024-01-07T03:36:42;97899.16;;;21.72;39.69
67818;BME280;54614;47.576;7.524;2024-01-07T03:39:08;97906.16;;;21.73;39.43
67818;BME280;54614;47.576;7.524;2024-01-07T03:41:34;97909.84;;;21.72;39.53
67818;BME280;54614;47.576;7.524;2024-01-07T03:43:59;97902.84;;;21.71;39.53
67818;BME280;54614;47.576;7.524;2024-01-07T03:46:25;97908.22;;;21.71;39.50
67818;BME280;54614;47.576;7.524;2024-01-07T03:48:51;97905.75;;;21.70;39.22
67818;BME280;54614;47.576;7.524;2024-01-07T03:51:17;97903.88;;;21.70;38.95
67818;BME280;54614;47.576;7.524;2024-01-07T03:53:42;97906.78;;;21.69;39.18
67818;BME280;54614;47.576;7.524;2024-01-07T03:56:08;97907.81;;;21.68;38.70
67818;BME280;54614;47.576;7.524;2024-01-07T03:58:34;97907.38;;;21.71;38.92
67818;BME280;54614;47.576;7.524;2024-01-07T04:01:00;97909.25;;;21.70;38.76
67818;BME280;54614;47.576;7.524;2024-01-07T04:03:26;97908.22;;;21.71;38.61
67818;BME280;54614;47.576;7.524;2024-01-07T04:05:52;97911.50;;;21.73;38.55
67818;BME280;54614;47.576;7.524;2024-01-07T04:08:18;97923.22;;;21.72;38.65
67818;BME280;54614;47.576;7.524;2024-01-07T04:10:44;97911.50;;;21.67;38.78
67818;BME280;54614;47.576;7.524;2024-01-07T04:13:10;97917.06;;;21.65;38.86
67818;BME280;54614;47.576;7.524;2024-01-07T04:15:35;97911.09;;;21.70;38.62
67818;BME280;54614;47.576;7.524;2024-01-07T04:18:03;97912.53;;;21.72;38.77
67818;BME280;54614;47.576;7.524;2024-01-07T04:20:30;97921.81;;;21.70;39.01
67818;BME280;54614;47.576;7.524;2024-01-07T04:22:56;97917.91;;;21.66;39.37
67818;BME280;54614;47.576;7.524;2024-01-07T04:25:23;97920.97;;;21.69;38.84
67818;BME280;54614;47.576;7.524;2024-01-07T04:27:49;97920.34;;;21.67;38.92
67818;BME280;54614;47.576;7.524;2024-01-07T04:30:15;97927.56;;;21.67;38.99
67818;BME280;54614;47.576;7.524;2024-01-07T04:32:41;97923.25;;;21.66;38.97
67818;BME280;54614;47.576;7.524;2024-01-07T04:35:07;97926.34;;;21.69;38.93
67818;BME280;54614;47.576;7.524;2024-01-07T04:37:35;97925.72;;;21.67;39.36
67818;BME280;54614;47.576;7.524;2024-01-07T04:40:01;97927.56;;;21.67;39.13
67818;BME280;54614;47.576;7.524;2024-01-07T04:42:28;97934.97;;;21.65;39.08
67818;BME280;54614;47.576;7.524;2024-01-07T04:44:53;97935.81;;;21.65;39.13
67818;BME280;54614;47.576;7.524;2024-01-07T04:47:31;97933.53;;;21.62;39.25
67818;BME280;54614;47.576;7.524;2024-01-07T04:49:57;97938.47;;;21.65;38.94
67818;BME280;54614;47.576;7.524;2024-01-07T04:52:24;97939.09;;;21.67;39.24
67818;BME280;54614;47.576;7.524;2024-01-07T04:54:52;97944.25;;;21.62;39.08
67818;BME280;54614;47.576;7.524;2024-01-07T04:57:18;97946.31;;;21.60;38.99
67818;BME280;54614;47.576;7.524;2024-01-07T04:59:46;97944.47;;;21.61;39.19
67818;BME280;54614;47.576;7.524;2024-01-07T05:02:12;97948.78;;;21.62;39.20
67818;BME280;54614;47.576;7.524;2024-01-07T05:04:38;97948.56;;;21.63;38.97
67818;BME280;54614;47.576;7.524;2024-01-07T05:07:04;97946.53;;;21.59;39.15
67818;BME280;54614;47.576;7.524;2024-01-07T05:09:31;97954.97;;;21.62;39.29
67818;BME280;54614;47.576;7.524;2024-01-07T05:11:57;97946.31;;;21.60;39.01
67818;BME280;54614;47.576;7.524;2024-01-07T05:14:23;97951.88;;;21.59;39.32
67818;BME280;54614;47.576;7.524;2024-01-07T05:16:49;97959.69;;;21.60;39.00
67818;BME280;54614;47.576;7.524;2024-01-07T05:19:15;97956.19;;;21.60;39.23
67818;BME280;54614;47.576;7.524;2024-01-07T05:21:40;97950.44;;;21.56;39.24
67818;BME280;54614;47.576;7.524;2024-01-07T05:24:06;97954.97;;;21.55;39.18
67818;BME280;54614;47.576;7.524;2024-01-07T05:26:40;97961.34;;;21.61;39.24
67818;BME280;54614;47.576;7.524;2024-01-07T05:29:06;97962.56;;;21.59;39.08
67818;BME280;54614;47.576;7.524;2024-01-07T05:31:32;97961.97;;;21.57;39.04
67818;BME280;54614;47.576;7.524;2024-01-07T05:33:57;97967.31;;;21.57;39.33
67818;BME280;54614;47.576;7.524;2024-01-07T05:36:24;97960.53;;;21.54;39.37
67818;BME280;54614;47.576;7.524;2024-01-07T05:38:49;97961.34;;;21.54;39.28
67818;BME280;54614;47.576;7.524;2024-01-07T05:41:15;97972.03;;;21.54;39.52
67818;BME280;54614;47.576;7.524;2024-01-07T05:43:41;97967.72;;;21.53;39.30
67818;BME280;54614;47.576;7.524;2024-01-07T05:46:07;97965.47;;;21.50;39.44
67818;BME280;54614;47.576;7.524;2024-01-07T05:48:43;97967.72;;;21.53;39.41
67818;BME280;54614;47.576;7.524;2024-01-07T05:51:13;97966.50;;;21.49;39.43
67818;BME280;54614;47.576;7.524;2024-01-07T05:53:40;97973.69;;;21.49;39.33
67818;BME280;54614;47.576;7.524;2024-01-07T05:56:06;97968.13;;;21.50;39.00
67818;BME280;54614;47.576;7.524;2024-01-07T05:58:32;97973.50;;;21.50;39.35
67818;BME280;54614;47.576;7.524;2024-01-07T06:00:58;97976.16;;;21.50;39.41
67818;BME280;54614;47.576;7.524;2024-01-07T06:03:24;97976.16;;;21.50;39.44
67818;BME280;54614;47.576;7.524;2024-01-07T06:05:50;97979.03;;;21.49;39.28
67818;BME280;54614;47.576;7.524;2024-01-07T06:08:15;97979.03;;;21.49;39.37
67818;BME280;54614;47.576;7.524;2024-01-07T06:10:41;97980.28;;;21.46;39.34
67818;BME280;54614;47.576;7.524;2024-01-07T06:13:07;97983.56;;;21.48;39.32
67818;BME280;54614;47.576;7.524;2024-01-07T06:15:33;97977.41;;;21.48;39.19
67818;BME280;54614;47.576;7.524;2024-01-07T06:17:59;97981.50;;;21.50;39.46
67818;BME280;54614;47.576;7.524;2024-01-07T06:20:25;97985.44;;;21.48;39.39
67818;BME280;54614;47.576;7.524;2024-01-07T06:22:50;97990.97;;;21.46;39.18
67818;BME280;54614;47.576;7.524;2024-01-07T06:25:16;97990.78;;;21.48;39.16
67818;BME280;54614;47.576;7.524;2024-01-07T06:27:42;97985.63;;;21.46;39.15
67818;BME280;54614;47.576;7.524;2024-01-07T06:30:09;97999.63;;;21.48;39.35
67818;BME280;54614;47.576;7.524;2024-01-07T06:32:35;97992.63;;;21.47;39.29
67818;BME280;54614;47.576;7.524;2024-01-07T06:35:01;97991.19;;;21.45;39.34
67818;BME280;54614;47.576;7.524;2024-01-07T06:37:28;98003.53;;;21.46;39.19
67818;BME280;54614;47.576;7.524;2024-01-07T06:39:56;98004.78;;;21.43;39.68
67818;BME280;54614;47.576;7.524;2024-01-07T06:42:22;98005.59;;;21.44;39.29
67818;BME280;54614;47.576;7.524;2024-01-07T06:44:48;98010.94;;;21.44;39.45
67818;BME280;54614;47.576;7.524;2024-01-07T06:47:13;98014.03;;;21.47;39.36
67818;BME280;54614;47.576;7.524;2024-01-07T06:49:40;98017.94;;;21.45;39.26
67818;BME280;54614;47.576;7.524;2024-01-07T06:52:05;98014.03;;;21.41;39.51
67818;BME280;54614;47.576;7.524;2024-01-07T06:54:31;98016.72;;;21.41;39.17
67818;BME280;54614;47.576;7.524;2024-01-07T06:56:57;98021.22;;;21.40;39.31
67818;BME280;54614;47.576;7.524;2024-01-07T06:59:23;98019.19;;;21.42;39.30
67818;BME280;54614;47.576;7.524;2024-01-07T07:01:48;98030.28;;;21.39;39.24
67818;BME280;54614;47.576;7.524;2024-01-07T07:04:14;98027.19;;;21.42;39.26
67818;BME280;54614;47.576;7.524;2024-01-07T07:06:40;98031.53;;;21.43;39.42
67818;BME280;54614;47.576;7.524;2024-01-07T07:09:06;98034.81;;;21.39;39.17
67818;BME280;54614;47.576;7.524;2024-01-07T07:11:32;98030.91;;;21.41;39.30
67818;BME280;54614;47.576;7.524;2024-01-07T07:13:58;98030.91;;;21.41;39.24
67818;BME280;54614;47.576;7.524;2024-01-07T07:16:23;98035.44;;;21.41;39.08
67818;BME280;54614;47.576;7.524;2024-01-07T07:18:50;98043.03;;;21.37;39.21
67818;BME280;54614;47.576;7.524;2024-01-07T07:21:16;98038.50;;;21.38;39.20
67818;BME280;54614;47.576;7.524;2024-01-07T07:23:41;98041.19;;;21.38;39.18
67818;BME280;54614;47.576;7.524;2024-01-07T07:26:07;98042.00;;;21.38;39.19
67818;BME280;54614;47.576;7.524;2024-01-07T07:28:34;98045.72;;;21.37;39.48
67818;BME280;54614;47.576;7.524;2024-01-07T07:30:59;98042.84;;;21.39;39.26
67818;BME280;54614;47.576;7.524;2024-01-07T07:33:25;98044.91;;;21.37;39.42
67818;BME280;54614;47.576;7.524;2024-01-07T07:35:51;98043.66;;;21.39;39.08
67818;BME280;54614;47.576;7.524;2024-01-07T07:38:17;98042.63;;;21.34;39.33
67818;BME280;54614;47.576;7.524;2024-01-07T07:40:42;98045.91;;;21.36;39.03
67818;BME280;54614;47.576;7.524;2024-01-07T07:43:10;98048.41;;;21.44;38.98
67818;BME280;54614;47.576;7.524;2024-01-07T07:45:35;98049.66;;;21.48;38.66
67818;BME280;54614;47.576;7.524;2024-01-07T07:48:01;98058.09;;;21.51;38.68
67818;BME280;54614;47.576;7.524;2024-01-07T07:50:27;98055.81;;;21.55;38.77
67818;BME280;54614;47.576;7.524;2024-01-07T07:52:53;98060.34;;;21.54;38.87
67818;BME280;54614;47.576;7.524;2024-01-07T07:55:19;98063.84;;;21.62;38.88
67818;BME280;54614;47.576;7.524;2024-01-07T07:57:45;98063.03;;;21.61;38.76
67818;BME280;54614;47.576;7.524;2024-01-07T08:00:12;98068.19;;;21.63;39.04
67818;BME280;54614;47.576;7.524;2024-01-07T08:02:38;98069.22;;;21.62;39.11
67818;BME280;54614;47.576;7.524;2024-01-07T08:05:06;98078.91;;;21.69;39.48
67818;BME280;54614;47.576;7.524;2024-01-07T08:07:32;98069.00;;;21.70;39.37
67818;BME280;54614;47.576;7.524;2024-01-07T08:09:58;98070.88;;;21.69;39.68
67818;BME280;54614;47.576;7.524;2024-01-07T08:12:24;98074.16;;;21.71;39.54
67818;BME280;54614;47.576;7.524;2024-01-07T08:14:50;98075.19;;;21.77;39.58
67818;BME280;54614;47.576;7.524;2024-01-07T08:17:15;98082.59;;;21.75;39.60
67818;BME280;54614;47.576;7.524;2024-01-07T08:19:42;98084.03;;;21.77;39.64
67818;BME280;54614;47.576;7.524;2024-01-07T08:22:08;98079.50;;;21.78;40.08
67818;BME280;54614;47.576;7.524;2024-01-07T08:24:34;98080.97;;;21.80;40.16
67818;BME280;54614;47.576;7.524;2024-01-07T08:27:01;98080.34;;;21.78;40.62
67818;BME280;54614;47.576;7.524;2024-01-07T08:29:28;98075.59;;;21.80;40.41
67818;BME280;54614;47.576;7.524;2024-01-07T08:31:54;98088.56;;;21.83;40.49
67818;BME280;54614;47.576;7.524;2024-01-07T08:34:20;98080.34;;;21.92;40.35
67818;BME280;54614;47.576;7.524;2024-01-07T08:36:46;98078.47;;;21.92;40.07
67818;BME280;54614;47.576;7.524;2024-01-07T08:39:14;98084.03;;;21.91;40.45
67818;BME280;54614;47.576;7.524;2024-01-07T08:41:40;98089.00;;;21.94;40.48
67818;BME280;54614;47.576;7.524;2024-01-07T08:44:06;98083.22;;;21.97;39.96
67818;BME280;54614;47.576;7.524;2024-01-07T08:46:34;98089.81;;;21.94;40.32
67818;BME280;54614;47.576;7.524;2024-01-07T08:49:00;98084.88;;;21.98;40.48
67818;BME280;54614;47.576;7.524;2024-01-07T08:51:25;98098.88;;;22.00;40.32
67818;BME280;54614;47.576;7.524;2024-01-07T08:53:51;98090.47;;;22.03;40.25
67818;BME280;54614;47.576;7.524;2024-01-07T08:56:17;98097.66;;;22.02;40.35
67818;BME280;54614;47.576;7.524;2024-01-07T08:58:43;98089.84;;;22.07;40.03
67818;BME280;54614;47.576;7.524;2024-01-07T09:01:09;98097.88;;;22.07;40.11
67818;BME280;54614;47.576;7.524;2024-01-07T09:03:35;98096.63;;;22.16;39.98
67818;BME280;54614;47.576;7.524;2024-01-07T09:06:01;98101.97;;;22.23;40.20
67818;BME280;54614;47.576;7.524;2024-01-07T09:08:26;98103.00;;;22.22;40.31
67818;BME280;54614;47.576;7.524;2024-01-07T09:10:52;98100.97;;;22.17;40.03
67818;BME280;54614;47.576;7.524;2024-01-07T09:13:18;98107.75;;;22.20;39.89
67818;BME280;54614;47.576;7.524;2024-01-07T09:15:43;98106.31;;;22.17;39.97
67818;BME280;54614;47.576;7.524;2024-01-07T09:18:09;98107.97;;;22.18;40.33
67818;BME280;54614;47.576;7.524;2024-01-07T09:20:35;98111.88;;;22.23;40.03
67818;BME280;54614;47.576;7.524;2024-01-07T09:23:01;98119.69;;;22.24;40.03
67818;BME280;54614;47.576;7.524;2024-01-07T09:25:27;98116.63;;;22.21;40.31
67818;BME280;54614;47.576;7.524;2024-01-07T09:27:52;98122.78;;;22.21;40.28
67818;BME280;54614;47.576;7.524;2024-01-07T09:30:18;98116.00;;;22.25;40.39
67818;BME280;54614;47.576;7.524;2024-01-07T09:32:44;98130.00;;;22.27;40.26
67818;BME280;54614;47.576;7.524;2024-01-07T09:35:10;98127.75;;;22.24;40.26
67818;BME280;54614;47.576;7.524;2024-01-07T09:37:36;98131.88;;;22.20;40.10
67818;BME280;54614;47.576;7.524;2024-01-07T09:40:02;98135.16;;;22.09;40.06
67818;BME280;54614;47.576;7.524;2024-01-07T09:42:30;98126.50;;;22.07;39.77
67818;BME280;54614;47.576;7.524;2024-01-07T09:44:56;98132.06;;;22.05;40.04
67818;BME280;54614;47.576;7.524;2024-01-07T09:47:23;98134.31;;;22.02;40.49
67818;BME280;54614;47.576;7.524;2024-01-07T09:49:49;98126.94;;;22.04;40.08
67818;BME280;54614;47.576;7.524;2024-01-07T09:52:15;98134.75;;;22.05;40.49
67818;BME280;54614;47.576;7.524;2024-01-07T09:54:45;98126.09;;;22.03;39.95
67818;BME280;54614;47.576;7.524;2024-01-07T09:57:15;98131.47;;;22.03;40.18
67818;BME280;54614;47.576;7.524;2024-01-07T09:59:41;98139.03;;;22.00;40.52
67818;BME280;54614;47.576;7.524;2024-01-07T10:02:07;98140.09;;;22.18;43.42
67818;BME280;54614;47.576;7.524;2024-01-07T10:04:33;98133.09;;;22.11;43.58
67818;BME280;54614;47.576;7.524;2024-01-07T10:06:59;98132.69;;;22.07;41.97
67818;BME280;54614;47.576;7.524;2024-01-07T10:09:29;98139.50;;;22.10;42.25
67818;BME280;54614;47.576;7.524;2024-01-07T10:11:55;98137.84;;;22.15;42.07
67818;BME280;54614;47.576;7.524;2024-01-07T10:14:21;98135.56;;;22.19;41.95
67818;BME280;54614;47.576;7.524;2024-01-07T10:16:48;98132.47;;;22.22;42.06
67818;BME280;54614;47.576;7.524;2024-01-07T10:19:21;98130.63;;;22.29;41.58
67818;BME280;54614;47.576;7.524;2024-01-07T10:22:07;98132.69;;;22.34;41.21
67818;BME280;54614;47.576;7.524;2024-01-07T10:24:38;98132.66;;;22.40;43.40
67818;BME280;54614;47.576;7.524;2024-01-07T10:27:06;98134.53;;;22.40;43.03
67818;BME280;54614;47.576;7.524;2024-01-07T10:29:33;98132.03;;;22.45;42.95
67818;BME280;54614;47.576;7.524;2024-01-07T10:32:01;98131.63;;;22.48;41.96
67818;BME280;54614;47.576;7.524;2024-01-07T10:34:32;98129.75;;;22.55;41.72
67818;BME280;54614;47.576;7.524;2024-01-07T10:37:04;98126.66;;;22.58;41.52
67818;BME280;54614;47.576;7.524;2024-01-07T10:39:30;98135.53;;;22.59;41.12
67818;BME280;54614;47.576;7.524;2024-01-07T10:41:57;98132.22;;;22.63;43.33
67818;BME280;54614;47.576;7.524;2024-01-07T10:44:30;98130.56;;;22.69;42.57
67818;BME280;54614;47.576;7.524;2024-01-07T10:46:56;98130.56;;;22.69;42.34
67818;BME280;54614;47.576;7.524;2024-01-07T10:49:25;98128.06;;;22.80;47.03
67818;BME280;54614;47.576;7.524;2024-01-07T10:52:18;98122.69;;;22.87;45.72
67818;BME280;54614;47.576;7.524;2024-01-07T10:54:46;98115.25;;;22.89;46.03
67818;BME280;54614;47.576;7.524;2024-01-07T10:57:21;98121.84;;;22.93;47.59
67818;BME280;54614;47.576;7.524;2024-01-07T10:59:52;98122.66;;;23.00;48.36
67818;BME280;54614;47.576;7.524;2024-01-07T11:02:21;98123.25;;;23.02;47.29
67818;BME280;54614;47.576;7.524;2024-01-07T11:05:11;98125.09;;;23.08;46.45
67818;BME280;54614;47.576;7.524;2024-01-07T11:07:47;98114.16;;;23.10;46.02
67818;BME280;54614;47.576;7.524;2024-01-07T11:10:25;98120.34;;;23.10;46.54
67818;BME280;54614;47.576;7.524;2024-01-07T11:12:55;98120.09;;;23.19;47.59
67818;BME280;54614;47.576;7.524;2024-01-07T11:18:22;98110.59;;;23.16;44.19
67818;BME280;54614;47.576;7.524;2024-01-07T11:20:49;98107.09;;;23.15;44.16
67818;BME280;54614;47.576;7.524;2024-01-07T11:23:29;98116.38;;;23.20;43.71
67818;BME280;54614;47.576;7.524;2024-01-07T11:25:57;98103.59;;;23.15;43.23
67818;BME280;54614;47.576;7.524;2024-01-07T11:29:01;98102.09;;;23.26;46.33
67818;BME280;54614;47.576;7.524;2024-01-07T11:34:05;98102.31;;;23.24;44.51
67818;BME280;54614;47.576;7.524;2024-01-07T11:36:35;98108.28;;;23.26;45.75
67818;BME280;54614;47.576;7.524;2024-01-07T11:39:01;98102.31;;;23.24;44.27
67818;BME280;54614;47.576;7.524;2024-01-07T11:41:33;98100.03;;;23.28;42.19
67818;BME280;54614;47.576;7.524;2024-01-07T11:43:59;98104.56;;;23.27;41.19
67818;BME280;54614;47.576;7.524;2024-01-07T11:46:27;98096.09;;;23.30;41.13
67818;BME280;54614;47.576;7.524;2024-01-07T11:48:55;98097.78;;;23.25;40.57
67818;BME280;54614;47.576;7.524;2024-01-07T11:51:32;98102.31;;;23.24;40.73
67818;BME280;54614;47.576;7.524;2024-01-07T11:53:59;98102.53;;;23.23;40.52
67818;BME280;54614;47.576;7.524;2024-01-07T11:56:25;98097.59;;;23.20;40.13
67818;BME280;54614;47.576;7.524;2024-01-07T11:58:52;98100.09;;;23.14;40.34
67818;BME280;54614;47.576;7.524;2024-01-07T12:01:20;98101.78;;;23.09;40.16
67818;BME280;54614;47.576;7.524;2024-01-07T12:03:46;98104.06;;;23.05;40.16
67818;BME280;54614;47.576;7.524;2024-01-07T12:06:13;98107.56;;;23.06;39.99
67818;BME280;54614;47.576;7.524;2024-01-07T12:08:43;98104.69;;;23.01;40.26
67818;BME280;54614;47.576;7.524;2024-01-07T12:11:12;98114.81;;;22.99;39.87
67818;BME280;54614;47.576;7.524;2024-01-07T12:13:39;98112.31;;;23.04;41.09
67818;BME280;54614;47.576;7.524;2024-01-07T12:16:06;98107.94;;;23.16;43.42
67818;BME280;54614;47.576;7.524;2024-01-07T12:18:32;98113.28;;;23.16;43.57
67818;BME280;54614;47.576;7.524;2024-01-07T12:20:59;98105.81;;;23.25;47.44
67818;BME280;54614;47.576;7.524;2024-01-07T12:23:26;98106.00;;;23.30;45.47
67818;BME280;54614;47.576;7.524;2024-01-07T12:25:53;98101.03;;;23.33;46.42
67818;BME280;54614;47.576;7.524;2024-01-07T12:28:19;98110.50;;;23.36;43.47
67818;BME280;54614;47.576;7.524;2024-01-07T12:30:48;98098.69;;;23.43;43.09
67818;BME280;54614;47.576;7.524;2024-01-07T12:33:19;98098.47;;;23.45;45.81
67818;BME280;54614;47.576;7.524;2024-01-07T12:35:47;98094.75;;;23.46;44.20
67818;BME280;54614;47.576;7.524;2024-01-07T12:38:13;98101.78;;;23.47;44.08
67818;BME280;54614;47.576;7.524;2024-01-07T12:40:39;98100.06;;;23.59;45.82
67818;BME280;54614;47.576;7.524;2024-01-07T12:43:05;98102.88;;;23.71;46.00
67818;BME280;54614;47.576;7.524;2024-01-07T12:45:34;98100.97;;;23.78;44.74
67818;BME280;54614;47.576;7.524;2024-01-07T12:48:00;98102.50;;;23.67;42.60
67818;BME280;54614;47.576;7.524;2024-01-07T12:50:28;98104.09;;;23.75;45.06
67818;BME280;54614;47.576;7.524;2024-01-07T12:52:56;98092.47;;;23.81;46.29
67818;BME280;54614;47.576;7.524;2024-01-07T12:55:23;98101.34;;;23.82;43.10
67818;BME280;54614;47.576;7.524;2024-01-07T12:57:48;98089.19;;;23.79;42.84
67818;BME280;54614;47.576;7.524;2024-01-07T13:00:15;98097.41;;;23.84;42.08
67818;BME280;54614;47.576;7.524;2024-01-07T13:02:42;98105.84;;;23.88;43.14
67818;BME280;54614;47.576;7.524;2024-01-07T13:05:08;98098.28;;;23.78;42.71